sensor_id;sensor_type;location;lat;lon;timestamp;pressure;altitude;pressure_sealevel;temperature;humidity
63096;BME280;49184;55.596;37.770;2022-11-30T00:01:22;102269.00;;;-6.63;58.53
63096;BME280;49184;55.596;37.770;2022-11-30T00:03:56;102244.75;;;-7.01;58.95
63096;BME280;49184;55.596;37.770;2022-11-30T00:06:25;102272.06;;;-6.99;59.50
63096;BME280;49184;55.596;37.770;2022-11-30T00:08:53;102269.97;;;-6.96;59.39
63096;BME280;49184;55.596;37.770;2022-11-30T00:11:27;102261.56;;;-7.01;59.54
63096;BME280;49184;55.596;37.770;2022-11-30T00:13:56;102233.78;;;-7.08;59.42
63096;BME280;49184;55.596;37.770;2022-11-30T00:16:22;102231.56;;;-7.03;59.13
63096;BME280;49184;55.596;37.770;2022-11-30T00:18:50;102244.72;;;-6.90;59.02
63096;BME280;49184;55.596;37.770;2022-11-30T00:21:18;102252.22;;;-6.63;58.45
63096;BME280;49184;55.596;37.770;2022-11-30T00:23:46;102262.56;;;-6.49;57.67
63096;BME280;49184;55.596;37.770;2022-11-30T00:26:16;102252.75;;;-6.48;57.42
63096;BME280;49184;55.596;37.770;2022-11-30T00:28:43;102243.06;;;-6.70;57.76
63096;BME280;49184;55.596;37.770;2022-11-30T00:31:16;102258.94;;;-6.59;57.90
63096;BME280;49184;55.596;37.770;2022-11-30T00:33:45;102236.81;;;-6.59;57.18
63096;BME280;49184;55.596;37.770;2022-11-30T00:36:16;102247.66;;;-6.72;57.91
63096;BME280;49184;55.596;37.770;2022-11-30T00:38:47;102236.16;;;-6.73;58.11
63096;BME280;49184;55.596;37.770;2022-11-30T00:41:18;102248.19;;;-6.36;57.80
63096;BME280;49184;55.596;37.770;2022-11-30T00:43:45;102241.84;;;-6.24;57.41
63096;BME280;49184;55.596;37.770;2022-11-30T00:46:11;102203.47;;;-6.43;57.40
63096;BME280;49184;55.596;37.770;2022-11-30T00:48:39;102245.59;;;-6.06;56.70
63096;BME280;49184;55.596;37.770;2022-11-30T00:51:06;102179.50;;;-6.43;56.68
63096;BME280;49184;55.596;37.770;2022-11-30T00:53:32;102240.13;;;-6.04;56.44
63096;BME280;49184;55.596;37.770;2022-11-30T00:55:59;102187.44;;;-6.31;56.66
63096;BME280;49184;55.596;37.770;2022-11-30T00:58:29;102236.94;;;-5.98;56.32
63096;BME280;49184;55.596;37.770;2022-11-30T01:00:59;102237.50;;;-5.95;56.23
63096;BME280;49184;55.596;37.770;2022-11-30T01:03:31;102223.84;;;-6.11;55.89
63096;BME280;49184;55.596;37.770;2022-11-30T01:06:07;102220.53;;;-6.24;56.03
63096;BME280;49184;55.596;37.770;2022-11-30T01:08:34;102204.50;;;-6.34;56.46
63096;BME280;49184;55.596;37.770;2022-11-30T01:11:05;102226.03;;;-6.16;56.05
63096;BME280;49184;55.596;37.770;2022-11-30T01:13:33;102216.25;;;-6.16;56.15
63096;BME280;49184;55.596;37.770;2022-11-30T01:15:59;102167.44;;;-6.47;56.35
63096;BME280;49184;55.596;37.770;2022-11-30T01:18:29;102231.75;;;-6.21;56.68
63096;BME280;49184;55.596;37.770;2022-11-30T01:21:04;102226.09;;;-6.06;56.13
63096;BME280;49184;55.596;37.770;2022-11-30T01:23:32;102209.59;;;-6.00;55.62
63096;BME280;49184;55.596;37.770;2022-11-30T01:26:02;102210.00;;;-6.05;54.96
63096;BME280;49184;55.596;37.770;2022-11-30T01:28:28;102231.63;;;-5.98;55.44
63096;BME280;49184;55.596;37.770;2022-11-30T01:30:59;102198.47;;;-6.15;55.29
63096;BME280;49184;55.596;37.770;2022-11-30T01:33:25;102235.38;;;-6.01;55.43
63096;BME280;49184;55.596;37.770;2022-11-30T01:36:22;102221.63;;;-6.06;55.73
63096;BME280;49184;55.596;37.770;2022-11-30T01:38:53;102196.09;;;-6.08;55.40
63096;BME280;49184;55.596;37.770;2022-11-30T01:41:26;102192.00;;;-6.12;56.07
63096;BME280;49184;55.596;37.770;2022-11-30T01:44:40;102202.13;;;-6.06;55.20
63096;BME280;49184;55.596;37.770;2022-11-30T01:49:29;102205.66;;;-6.06;55.37
63096;BME280;49184;55.596;37.770;2022-11-30T01:54:46;102226.41;;;-6.00;55.99
63096;BME280;49184;55.596;37.770;2022-11-30T01:57:35;102212.19;;;-6.10;55.96
63096;BME280;49184;55.596;37.770;2022-11-30T02:00:05;102225.66;;;-6.11;55.08
63096;BME280;49184;55.596;37.770;2022-11-30T02:05:27;102169.34;;;-6.79;56.31
63096;BME280;49184;55.596;37.770;2022-11-30T02:07:54;102230.75;;;-6.50;56.58
63096;BME280;49184;55.596;37.770;2022-11-30T02:10:32;102224.50;;;-6.40;56.44
63096;BME280;49184;55.596;37.770;2022-11-30T02:13:40;102222.09;;;-6.43;56.89
63096;BME280;49184;55.596;37.770;2022-11-30T02:16:26;102158.75;;;-6.70;56.42
63096;BME280;49184;55.596;37.770;2022-11-30T02:22:08;102221.72;;;-6.38;56.19
63096;BME280;49184;55.596;37.770;2022-11-30T02:25:07;102173.69;;;-6.78;56.49
63096;BME280;49184;55.596;37.770;2022-11-30T02:30:43;102192.75;;;-6.73;56.84
63096;BME280;49184;55.596;37.770;2022-11-30T02:33:14;102215.09;;;-6.44;56.77
63096;BME280;49184;55.596;37.770;2022-11-30T02:35:44;102221.91;;;-6.30;56.17
63096;BME280;49184;55.596;37.770;2022-11-30T02:38:13;102215.16;;;-6.34;55.77
63096;BME280;49184;55.596;37.770;2022-11-30T02:40:40;102188.31;;;-6.52;55.72
63096;BME280;49184;55.596;37.770;2022-11-30T02:43:06;102221.31;;;-6.75;56.52
63096;BME280;49184;55.596;37.770;2022-11-30T02:48:07;102212.72;;;-7.00;57.67
63096;BME280;49184;55.596;37.770;2022-11-30T02:50:49;102209.50;;;-6.82;57.24
63096;BME280;49184;55.596;37.770;2022-11-30T02:53:18;102189.75;;;-7.01;56.84
63096;BME280;49184;55.596;37.770;2022-11-30T02:55:48;102184.69;;;-7.04;56.86
63096;BME280;49184;55.596;37.770;2022-11-30T02:58:15;102211.47;;;-6.96;56.89
63096;BME280;49184;55.596;37.770;2022-11-30T03:00:46;102216.16;;;-7.20;57.14
63096;BME280;49184;55.596;37.770;2022-11-30T03:03:12;102208.38;;;-7.01;56.97
63096;BME280;49184;55.596;37.770;2022-11-30T03:05:38;102178.06;;;-7.10;56.57
63096;BME280;49184;55.596;37.770;2022-11-30T03:08:05;102211.28;;;-6.72;55.68
63096;BME280;49184;55.596;37.770;2022-11-30T03:10:31;102197.16;;;-6.83;55.50
63096;BME280;49184;55.596;37.770;2022-11-30T03:12:58;102145.25;;;-6.99;55.24
63096;BME280;49184;55.596;37.770;2022-11-30T03:15:26;102210.09;;;-6.58;55.07
63096;BME280;49184;55.596;37.770;2022-11-30T03:17:52;102176.72;;;-7.04;55.02
63096;BME280;49184;55.596;37.770;2022-11-30T03:20:20;102193.78;;;-6.86;55.15
63096;BME280;49184;55.596;37.770;2022-11-30T03:22:46;102208.16;;;-6.77;55.29
63096;BME280;49184;55.596;37.770;2022-11-30T03:25:17;102206.97;;;-6.63;55.42
63096;BME280;49184;55.596;37.770;2022-11-30T03:34:38;102061.44;;;-7.56;55.47
63096;BME280;49184;55.596;37.770;2022-11-30T03:37:04;102136.69;;;-7.02;55.37
63096;BME280;49184;55.596;37.770;2022-11-30T03:39:30;102181.13;;;-6.72;55.35
63096;BME280;49184;55.596;37.770;2022-11-30T03:41:57;102198.81;;;-6.50;55.03
63096;BME280;49184;55.596;37.770;2022-11-30T03:44:24;102195.63;;;-6.44;54.54
63096;BME280;49184;55.596;37.770;2022-11-30T03:46:52;102201.66;;;-6.42;54.94
63096;BME280;49184;55.596;37.770;2022-11-30T03:49:18;102187.56;;;-6.54;54.17
63096;BME280;49184;55.596;37.770;2022-11-30T03:51:45;102157.50;;;-6.75;54.57
63096;BME280;49184;55.596;37.770;2022-11-30T03:54:12;102174.47;;;-6.88;55.23
63096;BME280;49184;55.596;37.770;2022-11-30T03:56:39;102184.44;;;-6.80;55.36
63096;BME280;49184;55.596;37.770;2022-11-30T03:59:32;102206.31;;;-6.97;55.80
63096;BME280;49184;55.596;37.770;2022-11-30T04:02:02;102184.78;;;-7.26;56.57
63096;BME280;49184;55.596;37.770;2022-11-30T04:04:31;102195.50;;;-7.17;56.45
63096;BME280;49184;55.596;37.770;2022-11-30T04:06:57;102180.34;;;-7.37;56.44
63096;BME280;49184;55.596;37.770;2022-11-30T04:09:24;102196.91;;;-7.45;56.65
63096;BME280;49184;55.596;37.770;2022-11-30T04:11:51;102200.41;;;-7.44;57.30
63096;BME280;49184;55.596;37.770;2022-11-30T04:14:17;102194.19;;;-7.22;56.90
63096;BME280;49184;55.596;37.770;2022-11-30T04:16:43;102166.06;;;-7.36;56.20
63096;BME280;49184;55.596;37.770;2022-11-30T04:19:10;102170.22;;;-7.43;56.24
63096;BME280;49184;55.596;37.770;2022-11-30T04:21:36;102212.88;;;-7.45;56.49
63096;BME280;49184;55.596;37.770;2022-11-30T04:24:02;102204.53;;;-7.51;57.19
63096;BME280;49184;55.596;37.770;2022-11-30T04:26:34;102200.06;;;-7.62;57.04
63096;BME280;49184;55.596;37.770;2022-11-30T04:29:03;102203.94;;;-7.66;57.08
63096;BME280;49184;55.596;37.770;2022-11-30T04:31:30;102204.91;;;-7.45;56.90
63096;BME280;49184;55.596;37.770;2022-11-30T06:35:46;102202.47;;;-7.59;54.41
63096;BME280;49184;55.596;37.770;2022-11-30T06:38:13;102224.19;;;-7.31;54.21
63096;BME280;49184;55.596;37.770;2022-11-30T06:40:39;102231.56;;;-7.03;53.58
63096;BME280;49184;55.596;37.770;2022-11-30T06:43:05;102212.25;;;-7.05;53.28
63096;BME280;49184;55.596;37.770;2022-11-30T06:45:31;102251.22;;;-6.83;53.28
63096;BME280;49184;55.596;37.770;2022-11-30T06:47:57;102252.59;;;-6.68;52.99
63096;BME280;49184;55.596;37.770;2022-11-30T06:50:24;102266.81;;;-6.57;52.69
63096;BME280;49184;55.596;37.770;2022-11-30T06:52:50;102224.81;;;-6.75;53.01
63096;BME280;49184;55.596;37.770;2022-11-30T06:55:17;102257.03;;;-6.57;52.86
63096;BME280;49184;55.596;37.770;2022-11-30T06:57:47;102282.69;;;-6.35;53.03
63096;BME280;49184;55.596;37.770;2022-11-30T07:00:14;102238.63;;;-6.49;52.69
63096;BME280;49184;55.596;37.770;2022-11-30T07:13:17;102235.59;;;-6.13;51.63
63096;BME280;49184;55.596;37.770;2022-11-30T07:16:06;102276.78;;;-5.87;51.65
63096;BME280;49184;55.596;37.770;2022-11-30T07:18:33;102218.03;;;-6.16;52.00
63096;BME280;49184;55.596;37.770;2022-11-30T07:21:00;102240.06;;;-6.14;51.91
63096;BME280;49184;55.596;37.770;2022-11-30T07:23:28;102242.09;;;-6.27;51.70
63096;BME280;49184;55.596;37.770;2022-11-30T07:26:13;102292.75;;;-5.87;52.14
63096;BME280;49184;55.596;37.770;2022-11-30T07:28:44;102289.50;;;-5.91;51.93
63096;BME280;49184;55.596;37.770;2022-11-30T07:31:31;102263.44;;;-5.97;52.28
63096;BME280;49184;55.596;37.770;2022-11-30T07:34:03;102295.81;;;-5.61;52.18
63096;BME280;49184;55.596;37.770;2022-11-30T07:36:36;102295.28;;;-5.55;51.77
63096;BME280;49184;55.596;37.770;2022-11-30T07:39:02;102289.97;;;-5.55;51.82
63096;BME280;49184;55.596;37.770;2022-11-30T07:41:29;102283.34;;;-5.60;52.06
63096;BME280;49184;55.596;37.770;2022-11-30T07:43:55;102228.56;;;-5.84;52.18
63096;BME280;49184;55.596;37.770;2022-11-30T07:46:21;102266.56;;;-5.51;51.79
63096;BME280;49184;55.596;37.770;2022-11-30T07:48:51;102296.50;;;-5.28;51.94
63096;BME280;49184;55.596;37.770;2022-11-30T07:51:22;102257.19;;;-5.46;51.84
63096;BME280;49184;55.596;37.770;2022-11-30T07:53:48;102292.06;;;-5.08;51.93
63096;BME280;49184;55.596;37.770;2022-11-30T07:56:17;102295.75;;;-5.00;51.49
63096;BME280;49184;55.596;37.770;2022-11-30T07:58:44;102289.69;;;-5.02;51.91
63096;BME280;49184;55.596;37.770;2022-11-30T08:01:13;102291.94;;;-4.97;51.69
63096;BME280;49184;55.596;37.770;2022-11-30T08:04:08;102298.44;;;-4.80;51.46
63096;BME280;49184;55.596;37.770;2022-11-30T08:06:39;102250.53;;;-4.91;51.53
63096;BME280;49184;55.596;37.770;2022-11-30T08:09:10;102247.59;;;-4.88;51.73
63096;BME280;49184;55.596;37.770;2022-11-30T08:11:38;102283.97;;;-4.58;51.84
63096;BME280;49184;55.596;37.770;2022-11-30T08:14:47;102206.00;;;-5.10;51.65
63096;BME280;49184;55.596;37.770;2022-11-30T08:17:39;102291.97;;;-4.78;52.16
63096;BME280;49184;55.596;37.770;2022-11-30T08:25:39;102253.66;;;-4.86;52.56
63096;BME280;49184;55.596;37.770;2022-11-30T08:28:39;102280.03;;;-4.44;52.65
63096;BME280;49184;55.596;37.770;2022-11-30T08:31:11;102282.72;;;-4.44;52.97
63096;BME280;49184;55.596;37.770;2022-11-30T08:38:31;102226.78;;;-4.46;52.48
63096;BME280;49184;55.596;37.770;2022-11-30T08:40:59;102207.56;;;-4.69;52.84
63096;BME280;49184;55.596;37.770;2022-11-30T08:43:36;102249.97;;;-4.46;52.83
63096;BME280;49184;55.596;37.770;2022-11-30T08:46:05;102198.84;;;-4.81;53.18
63096;BME280;49184;55.596;37.770;2022-11-30T08:51:06;102269.50;;;-4.46;54.07
63096;BME280;49184;55.596;37.770;2022-11-30T08:53:33;102253.78;;;-4.59;54.49
63096;BME280;49184;55.596;37.770;2022-11-30T08:56:01;102253.88;;;-4.41;53.87
63096;BME280;49184;55.596;37.770;2022-11-30T08:58:36;102266.13;;;-4.29;54.12
63096;BME280;49184;55.596;37.770;2022-11-30T09:01:08;102230.13;;;-4.44;54.09
63096;BME280;49184;55.596;37.770;2022-11-30T09:04:10;102274.22;;;-4.11;54.08
63096;BME280;49184;55.596;37.770;2022-11-30T09:07:07;102269.47;;;-4.17;54.21
63096;BME280;49184;55.596;37.770;2022-11-30T09:09:56;102261.63;;;-4.47;55.08
63096;BME280;49184;55.596;37.770;2022-11-30T09:12:24;102202.94;;;-4.77;54.92
63096;BME280;49184;55.596;37.770;2022-11-30T09:15:10;102177.09;;;-4.86;54.94
63096;BME280;49184;55.596;37.770;2022-11-30T09:17:38;102146.47;;;-4.91;55.29
63096;BME280;49184;55.596;37.770;2022-11-30T09:23:03;102191.09;;;-4.55;55.28
63096;BME280;49184;55.596;37.770;2022-11-30T09:25:29;102244.78;;;-4.48;55.07
63096;BME280;49184;55.596;37.770;2022-11-30T09:28:16;102257.41;;;-4.40;55.26
63096;BME280;49184;55.596;37.770;2022-11-30T09:30:45;102231.72;;;-4.61;55.41
63096;BME280;49184;55.596;37.770;2022-11-30T09:33:28;102198.72;;;-4.99;55.50
63096;BME280;49184;55.596;37.770;2022-11-30T09:36:15;102206.28;;;-4.94;55.92
63096;BME280;49184;55.596;37.770;2022-11-30T09:39:05;102213.31;;;-4.74;55.52
63096;BME280;49184;55.596;37.770;2022-11-30T09:45:27;102205.44;;;-4.56;55.11
63096;BME280;49184;55.596;37.770;2022-11-30T09:50:33;102223.66;;;-4.22;54.88
63096;BME280;49184;55.596;37.770;2022-11-30T09:53:33;102251.88;;;-4.00;54.79
63096;BME280;49184;55.596;37.770;2022-11-30T09:56:28;102246.13;;;-4.15;55.53
63096;BME280;49184;55.596;37.770;2022-11-30T10:02:30;102245.22;;;-3.96;56.78
63096;BME280;49184;55.596;37.770;2022-11-30T10:08:43;102216.41;;;-4.02;57.60
63096;BME280;49184;55.596;37.770;2022-11-30T10:17:33;102244.59;;;-3.70;57.62
63096;BME280;49184;55.596;37.770;2022-11-30T10:26:36;102193.41;;;-3.58;56.50
63096;BME280;49184;55.596;37.770;2022-11-30T10:30:17;102245.09;;;-3.12;56.34
63096;BME280;49184;55.596;37.770;2022-11-30T10:32:55;102226.50;;;-3.31;55.73
63096;BME280;49184;55.596;37.770;2022-11-30T10:35:55;102239.50;;;-3.18;55.45
63096;BME280;49184;55.596;37.770;2022-11-30T10:38:45;102185.97;;;-3.54;55.06
63096;BME280;49184;55.596;37.770;2022-11-30T10:41:24;102206.91;;;-3.49;54.81
63096;BME280;49184;55.596;37.770;2022-11-30T10:47:32;102234.50;;;-3.03;55.40
63096;BME280;49184;55.596;37.770;2022-11-30T10:55:09;102228.72;;;-3.09;54.94
63096;BME280;49184;55.596;37.770;2022-11-30T10:58:12;102232.72;;;-2.95;54.82
63096;BME280;49184;55.596;37.770;2022-11-30T11:03:35;102229.03;;;-3.12;55.08
63096;BME280;49184;55.596;37.770;2022-11-30T11:10:23;102211.84;;;-3.27;54.66
63096;BME280;49184;55.596;37.770;2022-11-30T11:12:54;102174.88;;;-3.41;54.08
63096;BME280;49184;55.596;37.770;2022-11-30T11:15:25;102225.88;;;-3.25;54.75
63096;BME280;49184;55.596;37.770;2022-11-30T11:18:20;102178.78;;;-3.36;54.72
63096;BME280;49184;55.596;37.770;2022-11-30T11:23:41;102234.19;;;-3.00;54.53
63096;BME280;49184;55.596;37.770;2022-11-30T11:26:27;102179.44;;;-3.51;54.99
63096;BME280;49184;55.596;37.770;2022-11-30T11:32:22;102193.56;;;-3.59;55.33
63096;BME280;49184;55.596;37.770;2022-11-30T11:38:27;102228.19;;;-3.30;55.35
63096;BME280;49184;55.596;37.770;2022-11-30T11:41:39;102191.53;;;-3.75;55.80
63096;BME280;49184;55.596;37.770;2022-11-30T11:47:19;102232.94;;;-3.51;55.78
63096;BME280;49184;55.596;37.770;2022-11-30T11:50:36;102185.91;;;-3.72;56.12
63096;BME280;49184;55.596;37.770;2022-11-30T11:53:17;102230.47;;;-3.35;55.20
63096;BME280;49184;55.596;37.770;2022-11-30T11:56:25;102228.63;;;-3.35;55.35
63096;BME280;49184;55.596;37.770;2022-11-30T11:59:21;102228.19;;;-3.30;55.22
63096;BME280;49184;55.596;37.770;2022-11-30T12:04:47;102191.63;;;-3.39;54.74
63096;BME280;49184;55.596;37.770;2022-11-30T12:10:26;102232.94;;;-3.24;54.81
63096;BME280;49184;55.596;37.770;2022-11-30T12:13:07;102227.97;;;-3.19;54.59
63096;BME280;49184;55.596;37.770;2022-11-30T12:20:19;102196.97;;;-3.39;54.22
63096;BME280;49184;55.596;37.770;2022-11-30T12:23:08;102245.25;;;-3.13;54.22
63096;BME280;49184;55.596;37.770;2022-11-30T12:28:33;102238.97;;;-3.22;54.21
63096;BME280;49184;55.596;37.770;2022-11-30T12:31:13;102171.03;;;-3.84;54.42
63096;BME280;49184;55.596;37.770;2022-11-30T12:39:08;102161.25;;;-3.93;54.69
63096;BME280;49184;55.596;37.770;2022-11-30T13:04:25;102258.56;;;-3.86;55.65
63096;BME280;49184;55.596;37.770;2022-11-30T13:07:00;102265.78;;;-3.96;56.20
63096;BME280;49184;55.596;37.770;2022-11-30T13:09:35;102254.53;;;-4.00;56.27
63096;BME280;49184;55.596;37.770;2022-11-30T13:12:25;102269.47;;;-4.17;56.97
63096;BME280;49184;55.596;37.770;2022-11-30T13:15:17;102232.41;;;-4.59;57.27
63096;BME280;49184;55.596;37.770;2022-11-30T13:17:52;102226.25;;;-4.59;57.70
63096;BME280;49184;55.596;37.770;2022-11-30T13:23:40;102263.34;;;-4.46;57.83
63096;BME280;49184;55.596;37.770;2022-11-30T13:26:26;102255.44;;;-4.58;58.26
63096;BME280;49184;55.596;37.770;2022-11-30T13:29:09;102251.25;;;-4.70;58.32
63096;BME280;49184;55.596;37.770;2022-11-30T13:31:49;102255.03;;;-4.73;58.61
63096;BME280;49184;55.596;37.770;2022-11-30T13:34:29;102214.03;;;-4.91;58.71
63096;BME280;49184;55.596;37.770;2022-11-30T13:37:20;102244.34;;;-5.02;58.82
63096;BME280;49184;55.596;37.770;2022-11-30T13:39:51;102247.44;;;-4.87;58.85
63096;BME280;49184;55.596;37.770;2022-11-30T13:45:33;102248.28;;;-5.06;58.96
63096;BME280;49184;55.596;37.770;2022-11-30T13:48:29;102228.31;;;-5.21;58.96
63096;BME280;49184;55.596;37.770;2022-11-30T13:50:57;102178.31;;;-5.48;59.05
63096;BME280;49184;55.596;37.770;2022-11-30T13:53:31;102247.59;;;-4.98;58.84
63096;BME280;49184;55.596;37.770;2022-11-30T13:56:29;102231.56;;;-5.08;59.00
63096;BME280;49184;55.596;37.770;2022-11-30T14:01:52;102234.50;;;-5.21;59.06
63096;BME280;49184;55.596;37.770;2022-11-30T14:05:19;102245.44;;;-5.24;59.62
63096;BME280;49184;55.596;37.770;2022-11-30T14:10:54;102232.94;;;-5.33;59.67
63096;BME280;49184;55.596;37.770;2022-11-30T14:13:46;102220.41;;;-5.42;59.49
63096;BME280;49184;55.596;37.770;2022-11-30T14:16:20;102242.75;;;-5.24;59.49
63096;BME280;49184;55.596;37.770;2022-11-30T14:18:48;102140.94;;;-5.77;59.45
63096;BME280;49184;55.596;37.770;2022-11-30T14:21:28;102233.81;;;-5.23;59.53
63096;BME280;49184;55.596;37.770;2022-11-30T14:24:18;102229.84;;;-5.28;59.72
63096;BME280;49184;55.596;37.770;2022-11-30T14:26:48;102230.28;;;-5.33;59.56
63096;BME280;49184;55.596;37.770;2022-11-30T14:29:20;102219.72;;;-5.34;59.39
63096;BME280;49184;55.596;37.770;2022-11-30T14:31:56;102173.06;;;-5.79;59.50
63096;BME280;49184;55.596;37.770;2022-11-30T14:37:21;102159.28;;;-5.94;59.81
63096;BME280;49184;55.596;37.770;2022-11-30T14:39:51;102233.84;;;-5.53;60.14
63096;BME280;49184;55.596;37.770;2022-11-30T14:42:24;102174.31;;;-5.93;60.15
63096;BME280;49184;55.596;37.770;2022-11-30T14:44:54;102146.03;;;-6.15;60.17
63096;BME280;49184;55.596;37.770;2022-11-30T14:47:29;102116.03;;;-6.47;60.48
63096;BME280;49184;55.596;37.770;2022-11-30T14:50:04;102109.75;;;-6.46;60.57
63096;BME280;49184;55.596;37.770;2022-11-30T14:58:34;102222.53;;;-5.86;60.89
63096;BME280;49184;55.596;37.770;2022-11-30T15:01:38;102245.38;;;-5.83;60.97
63096;BME280;49184;55.596;37.770;2022-11-30T15:04:19;102140.56;;;-6.44;61.28
63096;BME280;49184;55.596;37.770;2022-11-30T15:06:47;102210.97;;;-6.06;61.37
63096;BME280;49184;55.596;37.770;2022-11-30T15:09:33;102229.66;;;-5.86;61.30
63096;BME280;49184;55.596;37.770;2022-11-30T15:12:00;102232.50;;;-5.78;60.91
63096;BME280;49184;55.596;37.770;2022-11-30T15:15:16;102136.41;;;-6.36;60.88
63096;BME280;49184;55.596;37.770;2022-11-30T15:18:22;102188.81;;;-6.06;60.57
63096;BME280;49184;55.596;37.770;2022-11-30T15:21:19;102187.53;;;-6.12;60.71
63096;BME280;49184;55.596;37.770;2022-11-30T15:24:02;102190.06;;;-6.10;60.71
63096;BME280;49184;55.596;37.770;2022-11-30T15:26:40;102174.75;;;-6.18;61.02
63096;BME280;49184;55.596;37.770;2022-11-30T15:29:23;102246.25;;;-5.73;61.02
63096;BME280;49184;55.596;37.770;2022-11-30T15:32:21;102190.56;;;-5.96;60.75
63096;BME280;49184;55.596;37.770;2022-11-30T15:34:56;102176.78;;;-6.01;60.07
63096;BME280;49184;55.596;37.770;2022-11-30T15:37:37;102181.84;;;-5.98;60.61
63096;BME280;49184;55.596;37.770;2022-11-30T15:40:32;102164.94;;;-6.18;60.93
63096;BME280;49184;55.596;37.770;2022-11-30T15:43:22;102237.50;;;-5.95;61.28
63096;BME280;49184;55.596;37.770;2022-11-30T15:51:59;102232.03;;;-5.93;60.83
63096;BME280;49184;55.596;37.770;2022-11-30T16:01:36;102189.00;;;-5.88;59.53
63096;BME280;49184;55.596;37.770;2022-11-30T16:07:54;102232.28;;;-5.65;60.00
63096;BME280;49184;55.596;37.770;2022-11-30T16:11:23;102202.06;;;-5.85;59.63
63096;BME280;49184;55.596;37.770;2022-11-30T16:14:38;102232.00;;;-5.62;59.46
63096;BME280;49184;55.596;37.770;2022-11-30T16:17:36;102117.34;;;-6.42;59.66
63096;BME280;49184;55.596;37.770;2022-11-30T16:20:31;102185.84;;;-6.13;60.75
63096;BME280;49184;55.596;37.770;2022-11-30T16:23:14;102203.94;;;-6.07;60.75
63096;BME280;49184;55.596;37.770;2022-11-30T16:25:50;102217.06;;;-5.84;60.49
63096;BME280;49184;55.596;37.770;2022-11-30T16:28:22;102235.06;;;-5.67;59.97
63096;BME280;49184;55.596;37.770;2022-11-30T16:30:52;102218.13;;;-5.66;59.79
63096;BME280;49184;55.596;37.770;2022-11-30T16:33:22;102235.41;;;-5.51;59.48
63096;BME280;49184;55.596;37.770;2022-11-30T16:35:55;102232.88;;;-5.52;59.11
63096;BME280;49184;55.596;37.770;2022-11-30T16:38:29;102200.13;;;-5.74;59.04
63096;BME280;49184;55.596;37.770;2022-11-30T16:41:24;102151.00;;;-6.00;58.96
63096;BME280;49184;55.596;37.770;2022-11-30T16:43:55;102122.75;;;-6.12;58.58
63096;BME280;49184;55.596;37.770;2022-11-30T16:46:29;102238.50;;;-5.55;58.83
63096;BME280;49184;55.596;37.770;2022-11-30T16:49:03;102221.78;;;-5.57;59.08
63096;BME280;49184;55.596;37.770;2022-11-30T16:51:55;102227.69;;;-5.54;58.83
63096;BME280;49184;55.596;37.770;2022-11-30T16:54:25;102210.66;;;-5.72;58.91
63096;BME280;49184;55.596;37.770;2022-11-30T16:56:55;102195.31;;;-5.80;59.00
63096;BME280;49184;55.596;37.770;2022-11-30T16:59:23;102227.41;;;-5.51;58.88
63096;BME280;49184;55.596;37.770;2022-11-30T17:01:52;102168.53;;;-5.88;58.74
63096;BME280;49184;55.596;37.770;2022-11-30T17:04:26;102219.81;;;-5.55;58.53
63096;BME280;49184;55.596;37.770;2022-11-30T17:07:21;102219.78;;;-5.65;59.00
63096;BME280;49184;55.596;37.770;2022-11-30T17:09:54;102173.41;;;-6.03;59.29
63096;BME280;49184;55.596;37.770;2022-11-30T17:12:21;102219.25;;;-5.59;59.10
63096;BME280;49184;55.596;37.770;2022-11-30T17:15:05;102175.69;;;-5.88;58.61
63096;BME280;49184;55.596;37.770;2022-11-30T17:17:46;102166.59;;;-5.96;58.14
63096;BME280;49184;55.596;37.770;2022-11-30T17:21:24;102227.56;;;-5.52;57.43
63096;BME280;49184;55.596;37.770;2022-11-30T17:24:47;102205.75;;;-5.67;57.48
63096;BME280;49184;55.596;37.770;2022-11-30T17:28:49;102231.03;;;-5.61;58.24
63096;BME280;49184;55.596;37.770;2022-11-30T17:31:36;102170.19;;;-5.97;58.09
63096;BME280;49184;55.596;37.770;2022-11-30T17:34:42;102127.78;;;-6.29;57.77
63096;BME280;49184;55.596;37.770;2022-11-30T17:37:17;102137.44;;;-6.28;57.81
63096;BME280;49184;55.596;37.770;2022-11-30T17:40:13;102165.72;;;-6.06;57.44
63096;BME280;49184;55.596;37.770;2022-11-30T17:47:20;102227.22;;;-5.69;57.24
63096;BME280;49184;55.596;37.770;2022-11-30T17:49:56;102227.22;;;-5.69;57.68
63096;BME280;49184;55.596;37.770;2022-11-30T17:52:24;102169.91;;;-6.03;57.74
63096;BME280;49184;55.596;37.770;2022-11-30T17:55:23;102229.19;;;-5.61;57.91
63096;BME280;49184;55.596;37.770;2022-11-30T17:58:18;102194.22;;;-5.77;57.56
63096;BME280;49184;55.596;37.770;2022-11-30T18:00:46;102235.00;;;-5.46;57.36
63096;BME280;49184;55.596;37.770;2022-11-30T18:03:24;102180.47;;;-5.82;56.88
63096;BME280;49184;55.596;37.770;2022-11-30T18:06:03;102161.53;;;-5.89;56.98
63096;BME280;49184;55.596;37.770;2022-11-30T18:08:48;102182.88;;;-5.79;56.50
63096;BME280;49184;55.596;37.770;2022-11-30T18:12:30;102161.53;;;-5.99;56.83
63096;BME280;49184;55.596;37.770;2022-11-30T18:15:17;102216.88;;;-5.62;56.85
63096;BME280;49184;55.596;37.770;2022-11-30T18:18:24;102230.63;;;-5.47;56.22
63096;BME280;49184;55.596;37.770;2022-11-30T18:21:31;102133.41;;;-6.22;56.34
63096;BME280;49184;55.596;37.770;2022-11-30T18:24:04;102189.28;;;-5.92;56.46
63096;BME280;49184;55.596;37.770;2022-11-30T18:27:32;102133.47;;;-6.33;56.94
63096;BME280;49184;55.596;37.770;2022-11-30T18:30:53;102194.50;;;-5.80;56.92
63096;BME280;49184;55.596;37.770;2022-11-30T18:33:31;102244.31;;;-5.71;56.97
63096;BME280;49184;55.596;37.770;2022-11-30T18:36:33;102165.94;;;-6.19;57.16
63096;BME280;49184;55.596;37.770;2022-11-30T18:39:37;102207.25;;;-5.84;56.24
63096;BME280;49184;55.596;37.770;2022-11-30T18:42:50;102143.75;;;-6.19;56.43
63096;BME280;49184;55.596;37.770;2022-11-30T18:45:22;102227.34;;;-5.70;56.45
63096;BME280;49184;55.596;37.770;2022-11-30T18:47:59;102193.75;;;-5.92;56.28